sensor_id;sensor_type;location;lat;lon;timestamp;pressure;altitude;pressure_sealevel;temperature;humidity
58690;BME280;44470;53.206;-6.106;2023-02-19T00:02:09;102485.75;;;18.98;60.14
58690;BME280;44470;53.206;-6.106;2023-02-19T00:04:35;102480.41;;;18.98;60.66
58690;BME280;44470;53.206;-6.106;2023-02-19T00:07:00;102479.56;;;19.01;60.19
58690;BME280;44470;53.206;-6.106;2023-02-19T00:09:25;102478.66;;;19.00;60.35
58690;BME280;44470;53.206;-6.106;2023-02-19T00:11:51;102477.78;;;19.01;60.23
58690;BME280;44470;53.206;-6.106;2023-02-19T00:14:19;102486.66;;;19.00;60.40
58690;BME280;44470;53.206;-6.106;2023-02-19T00:16:45;102481.31;;;18.97;60.02
58690;BME280;44470;53.206;-6.106;2023-02-19T00:19:14;102491.16;;;19.03;60.46
58690;BME280;44470;53.206;-6.106;2023-02-19T00:21:40;102493.78;;;19.01;60.58
58690;BME280;44470;53.206;-6.106;2023-02-19T00:24:06;102508.06;;;19.03;59.96
58690;BME280;44470;53.206;-6.106;2023-02-19T00:26:32;102498.25;;;19.02;60.46
58690;BME280;44470;53.206;-6.106;2023-02-19T00:29:01;102507.13;;;19.01;60.15
58690;BME280;44470;53.206;-6.106;2023-02-19T00:31:29;102516.94;;;19.02;60.05
58690;BME280;44470;53.206;-6.106;2023-02-19T00:33:57;102517.81;;;19.01;60.02
58690;BME280;44470;53.206;-6.106;2023-02-19T00:36:24;102515.94;;;18.96;60.18
58690;BME280;44470;53.206;-6.106;2023-02-19T00:38:51;102524.06;;;19.02;60.28
58690;BME280;44470;53.206;-6.106;2023-02-19T00:41:17;102513.34;;;19.00;60.37
58690;BME280;44470;53.206;-6.106;2023-02-19T00:46:10;102534.75;;;19.02;59.94
58690;BME280;44470;53.206;-6.106;2023-02-19T00:48:36;102518.66;;;18.97;60.16
58690;BME280;44470;53.206;-6.106;2023-02-19T00:51:02;102527.56;;;18.99;60.26
58690;BME280;44470;53.206;-6.106;2023-02-19T00:53:27;102525.78;;;18.98;60.19
58690;BME280;44470;53.206;-6.106;2023-02-19T00:55:52;102522.22;;;18.98;60.34
58690;BME280;44470;53.206;-6.106;2023-02-19T00:58:18;102533.81;;;19.01;59.62
58690;BME280;44470;53.206;-6.106;2023-02-19T01:00:43;102537.38;;;19.00;60.25
58690;BME280;44470;53.206;-6.106;2023-02-19T01:03:09;102539.16;;;19.01;60.08
58690;BME280;44470;53.206;-6.106;2023-02-19T01:05:34;102544.53;;;19.03;60.23
58690;BME280;44470;53.206;-6.106;2023-02-19T01:08:00;102531.09;;;18.97;60.18
58690;BME280;44470;53.206;-6.106;2023-02-19T01:10:25;102541.78;;;18.98;60.00
58690;BME280;44470;53.206;-6.106;2023-02-19T01:12:51;102536.50;;;19.01;59.94
58690;BME280;44470;53.206;-6.106;2023-02-19T01:15:17;102531.13;;;18.98;59.98
58690;BME280;44470;53.206;-6.106;2023-02-19T01:17:42;102539.19;;;19.03;60.29
58690;BME280;44470;53.206;-6.106;2023-02-19T01:20:08;102520.44;;;18.98;59.90
58690;BME280;44470;53.206;-6.106;2023-02-19T01:22:33;102538.28;;;19.02;60.22
58690;BME280;44470;53.206;-6.106;2023-02-19T01:24:59;102541.75;;;18.97;60.11
58690;BME280;44470;53.206;-6.106;2023-02-19T01:27:24;102554.28;;;19.02;60.00
58690;BME280;44470;53.206;-6.106;2023-02-19T01:29:50;102541.84;;;19.01;60.40
58690;BME280;44470;53.206;-6.106;2023-02-19T01:32:15;102543.63;;;19.02;59.93
58690;BME280;44470;53.206;-6.106;2023-02-19T01:34:41;102538.28;;;19.02;60.23
58690;BME280;44470;53.206;-6.106;2023-02-19T01:37:06;102533.88;;;19.03;60.30
58690;BME280;44470;53.206;-6.106;2023-02-19T01:39:38;102536.53;;;19.03;59.98
58690;BME280;44470;53.206;-6.106;2023-02-19T01:42:11;102532.94;;;19.02;60.01
58690;BME280;44470;53.206;-6.106;2023-02-19T01:47:03;102532.06;;;19.02;60.21
58690;BME280;44470;53.206;-6.106;2023-02-19T01:49:31;102528.53;;;19.03;59.96
58690;BME280;44470;53.206;-6.106;2023-02-19T01:52:22;102545.41;;;19.03;60.26
58690;BME280;44470;53.206;-6.106;2023-02-19T01:54:50;102546.28;;;19.02;59.84
58690;BME280;44470;53.206;-6.106;2023-02-19T01:57:22;102548.09;;;19.03;60.15
58690;BME280;44470;53.206;-6.106;2023-02-19T01:59:53;102540.03;;;19.00;60.21
58690;BME280;44470;53.206;-6.106;2023-02-19T02:02:21;102527.56;;;18.98;60.19
58690;BME280;44470;53.206;-6.106;2023-02-19T02:04:47;102537.41;;;19.03;60.41
58690;BME280;44470;53.206;-6.106;2023-02-19T02:07:14;102533.81;;;19.01;59.99
58690;BME280;44470;53.206;-6.106;2023-02-19T02:10:15;102537.41;;;19.03;60.13
58690;BME280;44470;53.206;-6.106;2023-02-19T02:12:44;102537.41;;;19.02;60.05
58690;BME280;44470;53.206;-6.106;2023-02-19T02:15:10;102533.78;;;18.98;60.25
58690;BME280;44470;53.206;-6.106;2023-02-19T02:31:18;102545.41;;;19.03;60.16
58690;BME280;44470;53.206;-6.106;2023-02-19T02:36:26;102532.06;;;19.03;60.07
58690;BME280;44470;53.206;-6.106;2023-02-19T02:38:53;102545.41;;;19.03;59.85
58690;BME280;44470;53.206;-6.106;2023-02-19T02:41:22;102555.25;;;19.06;59.80
58690;BME280;44470;53.206;-6.106;2023-02-19T02:43:47;102573.94;;;19.08;60.01
58690;BME280;44470;53.206;-6.106;2023-02-19T02:46:19;102563.25;;;19.06;59.87
58690;BME280;44470;53.206;-6.106;2023-02-19T02:48:50;102557.00;;;19.06;60.00
58690;BME280;44470;53.206;-6.106;2023-02-19T02:57:07;102548.13;;;19.07;60.10
58690;BME280;44470;53.206;-6.106;2023-02-19T02:59:43;102550.81;;;19.08;59.77
58690;BME280;44470;53.206;-6.106;2023-02-19T03:02:16;102559.72;;;19.09;60.07
58690;BME280;44470;53.206;-6.106;2023-02-19T03:10:08;102566.78;;;19.07;59.80
58690;BME280;44470;53.206;-6.106;2023-02-19T03:12:36;102566.75;;;19.03;59.99
58690;BME280;44470;53.206;-6.106;2023-02-19T03:15:26;102573.00;;;19.06;59.95
58690;BME280;44470;53.206;-6.106;2023-02-19T03:18:13;102581.94;;;19.08;60.15
58690;BME280;44470;53.206;-6.106;2023-02-19T03:20:59;102566.78;;;19.07;60.01
58690;BME280;44470;53.206;-6.106;2023-02-19T03:23:29;102573.94;;;19.08;59.95
58690;BME280;44470;53.206;-6.106;2023-02-19T03:26:17;102575.72;;;19.09;59.97
58690;BME280;44470;53.206;-6.106;2023-02-19T03:28:51;102567.72;;;19.09;59.86
58690;BME280;44470;53.206;-6.106;2023-02-19T03:31:40;102565.97;;;19.09;59.79
58690;BME280;44470;53.206;-6.106;2023-02-19T03:34:12;102573.94;;;19.06;59.84
58690;BME280;44470;53.206;-6.106;2023-02-19T03:36:43;102556.13;;;19.07;60.11
58690;BME280;44470;53.206;-6.106;2023-02-19T03:39:14;102548.97;;;19.01;59.79
58690;BME280;44470;53.206;-6.106;2023-02-19T03:49:48;102560.47;;;18.98;59.88
58690;BME280;44470;53.206;-6.106;2023-02-19T03:55:06;102557.03;;;19.09;59.63
58690;BME280;44470;53.206;-6.106;2023-02-19T04:03:07;102566.00;;;19.11;59.86
58690;BME280;44470;53.206;-6.106;2023-02-19T04:05:40;102551.66;;;19.06;59.95
58690;BME280;44470;53.206;-6.106;2023-02-19T04:08:13;102566.88;;;19.10;59.84
58690;BME280;44470;53.206;-6.106;2023-02-19T04:10:45;102547.22;;;19.05;59.67
58690;BME280;44470;53.206;-6.106;2023-02-19T04:13:25;102557.06;;;19.10;59.83
58690;BME280;44470;53.206;-6.106;2023-02-19T04:15:55;102570.38;;;19.09;59.70
58690;BME280;44470;53.206;-6.106;2023-02-19T04:18:30;102584.69;;;19.11;59.79
58690;BME280;44470;53.206;-6.106;2023-02-19T04:20:58;102577.53;;;19.10;59.76
58690;BME280;44470;53.206;-6.106;2023-02-19T04:23:27;102569.53;;;19.10;59.92
58690;BME280;44470;53.206;-6.106;2023-02-19T04:25:57;102573.13;;;19.12;59.90
58690;BME280;44470;53.206;-6.106;2023-02-19T04:28:24;102581.13;;;19.12;59.67
58690;BME280;44470;53.206;-6.106;2023-02-19T04:30:50;102577.59;;;19.13;59.91
58690;BME280;44470;53.206;-6.106;2023-02-19T04:33:15;102574.78;;;19.03;59.82
58690;BME280;44470;53.206;-6.106;2023-02-19T04:35:41;102583.81;;;19.12;59.54
58690;BME280;44470;53.206;-6.106;2023-02-19T04:38:06;102582.00;;;19.11;59.97
58690;BME280;44470;53.206;-6.106;2023-02-19T04:40:32;102590.00;;;19.11;59.85
58690;BME280;44470;53.206;-6.106;2023-02-19T04:42:57;102597.16;;;19.12;59.83
58690;BME280;44470;53.206;-6.106;2023-02-19T04:45:26;102598.03;;;19.12;59.93
58690;BME280;44470;53.206;-6.106;2023-02-19T04:47:51;102571.25;;;19.08;59.36
58690;BME280;44470;53.206;-6.106;2023-02-19T04:50:17;102596.28;;;19.14;59.55
58690;BME280;44470;53.206;-6.106;2023-02-19T04:52:42;102595.38;;;19.14;59.89
58690;BME280;44470;53.206;-6.106;2023-02-19T04:55:08;102606.06;;;19.14;59.63
58690;BME280;44470;53.206;-6.106;2023-02-19T04:57:34;102610.44;;;19.10;59.78
58690;BME280;44470;53.206;-6.106;2023-02-19T05:00:03;102617.63;;;19.14;59.52
58690;BME280;44470;53.206;-6.106;2023-02-19T05:02:29;102594.38;;;19.04;59.25
58690;BME280;44470;53.206;-6.106;2023-02-19T05:04:54;102603.28;;;19.08;59.64
58690;BME280;44470;53.206;-6.106;2023-02-19T05:07:20;102615.88;;;19.15;59.58
58690;BME280;44470;53.206;-6.106;2023-02-19T05:09:45;102612.31;;;19.16;59.57
58690;BME280;44470;53.206;-6.106;2023-02-19T05:12:10;102615.00;;;19.16;59.42
58690;BME280;44470;53.206;-6.106;2023-02-19T05:14:36;102615.88;;;19.15;59.72
58690;BME280;44470;53.206;-6.106;2023-02-19T05:17:01;102608.75;;;19.15;59.68
58690;BME280;44470;53.206;-6.106;2023-02-19T05:19:27;102607.84;;;19.15;59.54
58690;BME280;44470;53.206;-6.106;2023-02-19T05:21:52;102598.94;;;19.14;59.67
58690;BME280;44470;53.206;-6.106;2023-02-19T05:24:18;102600.72;;;19.15;59.81
58690;BME280;44470;53.206;-6.106;2023-02-19T05:26:43;102592.69;;;19.12;59.48
58690;BME280;44470;53.206;-6.106;2023-02-19T05:29:09;102590.97;;;19.17;59.63
58690;BME280;44470;53.206;-6.106;2023-02-19T05:31:34;102583.84;;;19.16;59.68
58690;BME280;44470;53.206;-6.106;2023-02-19T05:34:00;102587.41;;;19.19;59.78
58690;BME280;44470;53.206;-6.106;2023-02-19T05:36:26;102582.97;;;19.16;59.58
58690;BME280;44470;53.206;-6.106;2023-02-19T05:38:55;102592.72;;;19.15;59.56
58690;BME280;44470;53.206;-6.106;2023-02-19T05:41:24;102607.91;;;19.18;59.27
58690;BME280;44470;53.206;-6.106;2023-02-19T05:43:50;102598.09;;;19.19;59.63
58690;BME280;44470;53.206;-6.106;2023-02-19T05:46:18;102595.44;;;19.17;59.81
58690;BME280;44470;53.206;-6.106;2023-02-19T05:48:44;102609.69;;;19.19;59.37
58690;BME280;44470;53.206;-6.106;2023-02-19T05:51:12;102562.41;;;19.10;59.18
58690;BME280;44470;53.206;-6.106;2023-02-19T05:53:39;102573.19;;;19.20;59.70
58690;BME280;44470;53.206;-6.106;2023-02-19T05:56:28;102562.53;;;19.20;59.49
58690;BME280;44470;53.206;-6.106;2023-02-19T05:58:55;102558.06;;;19.19;59.38
58690;BME280;44470;53.206;-6.106;2023-02-19T06:01:22;102570.53;;;19.18;59.83
58690;BME280;44470;53.206;-6.106;2023-02-19T06:03:49;102562.53;;;19.20;59.63
58690;BME280;44470;53.206;-6.106;2023-02-19T06:06:16;102552.75;;;19.20;59.78
58690;BME280;44470;53.206;-6.106;2023-02-19T06:08:42;102566.06;;;19.19;59.58
58690;BME280;44470;53.206;-6.106;2023-02-19T06:11:08;102581.25;;;19.21;59.48
58690;BME280;44470;53.206;-6.106;2023-02-19T06:13:33;102564.34;;;19.22;59.73
58690;BME280;44470;53.206;-6.106;2023-02-19T06:16:02;102563.44;;;19.20;59.62
58690;BME280;44470;53.206;-6.106;2023-02-19T06:18:28;102553.59;;;19.16;59.42
58690;BME280;44470;53.206;-6.106;2023-02-19T06:20:53;102537.66;;;19.22;59.79
58690;BME280;44470;53.206;-6.106;2023-02-19T06:23:19;102525.16;;;19.18;59.61
58690;BME280;44470;53.206;-6.106;2023-02-19T06:25:44;102529.66;;;19.24;59.71
58690;BME280;44470;53.206;-6.106;2023-02-19T06:28:10;102552.78;;;19.23;59.50
58690;BME280;44470;53.206;-6.106;2023-02-19T06:30:35;102553.63;;;19.21;60.00
58690;BME280;44470;53.206;-6.106;2023-02-19T06:33:01;102556.34;;;19.22;59.57
58690;BME280;44470;53.206;-6.106;2023-02-19T06:35:27;102559.91;;;19.24;59.63
58690;BME280;44470;53.206;-6.106;2023-02-19T06:37:52;102567.06;;;19.25;59.66
58690;BME280;44470;53.206;-6.106;2023-02-19T06:40:18;102549.25;;;19.24;59.81
58690;BME280;44470;53.206;-6.106;2023-02-19T06:42:43;102552.78;;;19.23;59.81
58690;BME280;44470;53.206;-6.106;2023-02-19T06:45:09;102540.31;;;19.22;59.96
58690;BME280;44470;53.206;-6.106;2023-02-19T06:47:34;102537.69;;;19.25;59.64
58690;BME280;44470;53.206;-6.106;2023-02-19T06:50:00;102535.91;;;19.24;59.80
58690;BME280;44470;53.206;-6.106;2023-02-19T06:52:26;102528.78;;;19.23;59.67
58690;BME280;44470;53.206;-6.106;2023-02-19T06:54:52;102526.09;;;19.23;59.59
58690;BME280;44470;53.206;-6.106;2023-02-19T06:57:17;102535.91;;;19.24;59.82
58690;BME280;44470;53.206;-6.106;2023-02-19T06:59:43;102539.41;;;19.20;59.58
58690;BME280;44470;53.206;-6.106;2023-02-19T07:02:10;102538.53;;;19.21;59.52
58690;BME280;44470;53.206;-6.106;2023-02-19T07:04:36;102549.28;;;19.27;59.41
58690;BME280;44470;53.206;-6.106;2023-02-19T07:07:01;102556.38;;;19.27;59.51
58690;BME280;44470;53.206;-6.106;2023-02-19T07:09:27;102557.28;;;19.27;59.48
58690;BME280;44470;53.206;-6.106;2023-02-19T07:11:53;102542.13;;;19.23;59.95
58690;BME280;44470;53.206;-6.106;2023-02-19T07:14:18;102548.38;;;19.27;59.61
58690;BME280;44470;53.206;-6.106;2023-02-19T07:16:46;102551.94;;;19.27;59.46
58690;BME280;44470;53.206;-6.106;2023-02-19T07:19:12;102555.50;;;19.26;59.81
58690;BME280;44470;53.206;-6.106;2023-02-19T07:21:39;102551.91;;;19.26;59.97
58690;BME280;44470;53.206;-6.106;2023-02-19T07:24:08;102571.50;;;19.26;59.81
58690;BME280;44470;53.206;-6.106;2023-02-19T07:26:34;102587.53;;;19.26;59.46
58690;BME280;44470;53.206;-6.106;2023-02-19T07:29:00;102593.75;;;19.25;60.09
58690;BME280;44470;53.206;-6.106;2023-02-19T07:31:27;102606.25;;;19.29;59.51
58690;BME280;44470;53.206;-6.106;2023-02-19T07:33:53;102592.00;;;19.27;59.63
58690;BME280;44470;53.206;-6.106;2023-02-19T07:36:20;102583.97;;;19.29;59.67
58690;BME280;44470;53.206;-6.106;2023-02-19T07:38:46;102585.78;;;19.28;59.50
58690;BME280;44470;53.206;-6.106;2023-02-19T07:41:16;102583.09;;;19.28;59.40
58690;BME280;44470;53.206;-6.106;2023-02-19T07:43:42;102588.47;;;19.31;59.31
58690;BME280;44470;53.206;-6.106;2023-02-19T07:46:09;102594.66;;;19.27;59.46
58690;BME280;44470;53.206;-6.106;2023-02-19T07:48:36;102604.53;;;19.35;59.04
58690;BME280;44470;53.206;-6.106;2023-02-19T07:51:03;102612.50;;;19.33;58.83
58690;BME280;44470;53.206;-6.106;2023-02-19T07:53:29;102617.84;;;19.33;59.22
58690;BME280;44470;53.206;-6.106;2023-02-19T07:55:59;102621.41;;;19.32;59.34
58690;BME280;44470;53.206;-6.106;2023-02-19T07:58:26;102611.59;;;19.29;59.22
58690;BME280;44470;53.206;-6.106;2023-02-19T08:00:52;102622.31;;;19.33;58.97
58690;BME280;44470;53.206;-6.106;2023-02-19T08:03:17;102613.38;;;19.30;59.16
58690;BME280;44470;53.206;-6.106;2023-02-19T08:05:43;102618.72;;;19.30;58.85
58690;BME280;44470;53.206;-6.106;2023-02-19T08:08:11;102620.53;;;19.31;59.05
58690;BME280;44470;53.206;-6.106;2023-02-19T08:10:37;102624.06;;;19.30;59.23
58690;BME280;44470;53.206;-6.106;2023-02-19T08:13:22;102627.63;;;19.29;59.14
58690;BME280;44470;53.206;-6.106;2023-02-19T08:15:49;102630.28;;;19.29;59.38
58690;BME280;44470;53.206;-6.106;2023-02-19T08:18:17;102624.94;;;19.29;59.39
58690;BME280;44470;53.206;-6.106;2023-02-19T08:20:43;102622.28;;;19.29;58.89
58690;BME280;44470;53.206;-6.106;2023-02-19T08:23:10;102633.88;;;19.33;59.22
58690;BME280;44470;53.206;-6.106;2023-02-19T08:25:36;102626.75;;;19.32;59.59
58690;BME280;44470;53.206;-6.106;2023-02-19T08:28:02;102639.22;;;19.33;59.42
58690;BME280;44470;53.206;-6.106;2023-02-19T08:30:28;102627.63;;;19.29;59.33
58690;BME280;44470;53.206;-6.106;2023-02-19T08:32:54;102641.88;;;19.31;59.30
58690;BME280;44470;53.206;-6.106;2023-02-19T08:35:20;102643.66;;;19.33;59.78
58690;BME280;44470;53.206;-6.106;2023-02-19T08:37:46;102633.00;;;19.33;59.59
58690;BME280;44470;53.206;-6.106;2023-02-19T08:40:11;102630.31;;;19.34;59.54
58690;BME280;44470;53.206;-6.106;2023-02-19T08:42:37;102638.38;;;19.36;59.49
58690;BME280;44470;53.206;-6.106;2023-02-19T08:45:03;102635.66;;;19.33;59.20
58690;BME280;44470;53.206;-6.106;2023-02-19T08:47:29;102638.41;;;19.37;59.57
58690;BME280;44470;53.206;-6.106;2023-02-19T08:49:54;102634.81;;;19.37;59.46
58690;BME280;44470;53.206;-6.106;2023-02-19T08:52:20;102625.91;;;19.35;59.45
58690;BME280;44470;53.206;-6.106;2023-02-19T08:54:45;102609.00;;;19.36;59.34
58690;BME280;44470;53.206;-6.106;2023-02-19T08:57:11;102607.16;;;19.33;59.72
58690;BME280;44470;53.206;-6.106;2023-02-19T08:59:36;102622.34;;;19.36;59.48
58690;BME280;44470;53.206;-6.106;2023-02-19T09:02:02;102617.00;;;19.36;59.11
58690;BME280;44470;53.206;-6.106;2023-02-19T09:04:27;102616.09;;;19.35;59.35
58690;BME280;44470;53.206;-6.106;2023-02-19T09:06:53;102613.47;;;19.37;59.53
58690;BME280;44470;53.206;-6.106;2023-02-19T09:09:18;102610.78;;;19.37;59.35
58690;BME280;44470;53.206;-6.106;2023-02-19T09:11:44;102609.03;;;19.37;59.43
58690;BME280;44470;53.206;-6.106;2023-02-19T09:14:09;102613.47;;;19.37;59.50
58690;BME280;44470;53.206;-6.106;2023-02-19T09:16:35;102618.81;;;19.37;59.26
58690;BME280;44470;53.206;-6.106;2023-02-19T09:19:02;102612.59;;;19.36;59.33
58690;BME280;44470;53.206;-6.106;2023-02-19T09:21:28;102615.25;;;19.38;59.21
58690;BME280;44470;53.206;-6.106;2023-02-19T09:23:54;102612.59;;;19.38;59.38
58690;BME280;44470;53.206;-6.106;2023-02-19T09:26:19;102621.50;;;19.38;59.26
58690;BME280;44470;53.206;-6.106;2023-02-19T09:28:45;102620.59;;;19.38;59.37
58690;BME280;44470;53.206;-6.106;2023-02-19T09:31:22;102622.38;;;19.39;59.45
58690;BME280;44470;53.206;-6.106;2023-02-19T09:33:48;102620.63;;;19.41;59.52
58690;BME280;44470;53.206;-6.106;2023-02-19T09:36:15;102618.84;;;19.38;59.41
58690;BME280;44470;53.206;-6.106;2023-02-19T09:38:41;102621.50;;;19.40;59.53
58690;BME280;44470;53.206;-6.106;2023-02-19T09:41:17;102617.91;;;19.38;59.61
58690;BME280;44470;53.206;-6.106;2023-02-19T09:43:45;102622.41;;;19.40;59.15
58690;BME280;44470;53.206;-6.106;2023-02-19T09:49:01;102622.41;;;19.42;59.30
58690;BME280;44470;53.206;-6.106;2023-02-19T09:51:30;102609.94;;;19.41;59.56
58690;BME280;44470;53.206;-6.106;2023-02-19T09:53:56;102624.22;;;19.43;59.46
58690;BME280;44470;53.206;-6.106;2023-02-19T09:56:24;102634.91;;;19.43;59.42
58690;BME280;44470;53.206;-6.106;2023-02-19T09:58:54;102627.75;;;19.42;59.71
58690;BME280;44470;53.206;-6.106;2023-02-19T10:01:24;102634.84;;;19.40;59.15
58690;BME280;44470;53.206;-6.106;2023-02-19T10:03:50;102638.41;;;19.39;59.55
58690;BME280;44470;53.206;-6.106;2023-02-19T10:06:24;102642.94;;;19.44;59.34
58690;BME280;44470;53.206;-6.106;2023-02-19T10:09:21;102644.69;;;19.44;58.82
58690;BME280;44470;53.206;-6.106;2023-02-19T10:11:48;102651.88;;;19.46;59.24
58690;BME280;44470;53.206;-6.106;2023-02-19T10:16:52;102663.38;;;19.44;59.66
58690;BME280;44470;53.206;-6.106;2023-02-19T10:19:18;102654.53;;;19.46;59.33
58690;BME280;44470;53.206;-6.106;2023-02-19T10:21:43;102657.22;;;19.46;59.40
58690;BME280;44470;53.206;-6.106;2023-02-19T10:24:20;102651.88;;;19.46;59.30
58690;BME280;44470;53.206;-6.106;2023-02-19T10:26:48;102657.22;;;19.48;59.22
58690;BME280;44470;53.206;-6.106;2023-02-19T10:29:14;102652.78;;;19.49;60.29
58690;BME280;44470;53.206;-6.106;2023-02-19T10:31:39;102662.59;;;19.50;60.61
58690;BME280;44470;53.206;-6.106;2023-02-19T10:34:17;102664.38;;;19.51;60.63
58690;BME280;44470;53.206;-6.106;2023-02-19T10:36:46;102669.72;;;19.52;61.35
58690;BME280;44470;53.206;-6.106;2023-02-19T10:39:45;102676.88;;;19.55;61.27
58690;BME280;44470;53.206;-6.106;2023-02-19T10:42:20;102667.97;;;19.54;60.96
58690;BME280;44470;53.206;-6.106;2023-02-19T10:44:50;102674.19;;;19.53;60.68
58690;BME280;44470;53.206;-6.106;2023-02-19T10:47:21;102675.06;;;19.52;60.74
58690;BME280;44470;53.206;-6.106;2023-02-19T10:49:47;102672.38;;;19.52;60.29
58690;BME280;44470;53.206;-6.106;2023-02-19T10:52:15;102682.22;;;19.55;60.52
58690;BME280;44470;53.206;-6.106;2023-02-19T10:54:51;102667.88;;;19.48;60.30
58690;BME280;44470;53.206;-6.106;2023-02-19T10:59:57;102686.66;;;19.53;60.02
58690;BME280;44470;53.206;-6.106;2023-02-19T11:02:23;102681.28;;;19.51;60.34
58690;BME280;44470;53.206;-6.106;2023-02-19T11:07:38;102669.72;;;19.52;60.29
58690;BME280;44470;53.206;-6.106;2023-02-19T11:10:19;102669.75;;;19.54;59.95
58690;BME280;44470;53.206;-6.106;2023-02-19T11:12:48;102667.97;;;19.53;59.73
58690;BME280;44470;53.206;-6.106;2023-02-19T11:15:30;102658.16;;;19.52;60.22
58690;BME280;44470;53.206;-6.106;2023-02-19T11:18:19;102664.38;;;19.52;60.03
58690;BME280;44470;53.206;-6.106;2023-02-19T11:20:54;102665.25;;;19.51;59.88
58690;BME280;44470;53.206;-6.106;2023-02-19T11:23:29;102670.59;;;19.51;60.17
58690;BME280;44470;53.206;-6.106;2023-02-19T11:25:58;102677.72;;;19.52;60.16
58690;BME280;44470;53.206;-6.106;2023-02-19T11:28:40;102664.34;;;19.49;60.11
58690;BME280;44470;53.206;-6.106;2023-02-19T11:31:23;102663.53;;;19.55;60.09
58690;BME280;44470;53.206;-6.106;2023-02-19T11:33:56;102669.75;;;19.55;59.85
58690;BME280;44470;53.206;-6.106;2023-02-19T11:38:47;102636.75;;;19.50;60.00
58690;BME280;44470;53.206;-6.106;2023-02-19T11:48:08;102619.88;;;19.54;60.07
58690;BME280;44470;53.206;-6.106;2023-02-19T11:53:27;102621.69;;;19.55;59.70
58690;BME280;44470;53.206;-6.106;2023-02-19T12:09:00;102602.09;;;19.55;60.07
58690;BME280;44470;53.206;-6.106;2023-02-19T12:11:42;102601.19;;;19.53;59.56
58690;BME280;44470;53.206;-6.106;2023-02-19T12:22:19;102579.84;;;19.57;59.97
58690;BME280;44470;53.206;-6.106;2023-02-19T12:30:36;102558.50;;;19.57;59.72
58690;BME280;44470;53.206;-6.106;2023-02-19T12:43:49;102536.25;;;19.57;59.34
58690;BME280;44470;53.206;-6.106;2023-02-19T12:46:21;102519.31;;;19.56;59.60
58690;BME280;44470;53.206;-6.106;2023-02-19T12:56:43;102472.16;;;19.58;59.21
58690;BME280;44470;53.206;-6.106;2023-02-19T12:59:17;102479.28;;;19.59;59.34
58690;BME280;44470;53.206;-6.106;2023-02-19T13:04:36;102460.56;;;19.56;59.03
58690;BME280;44470;53.206;-6.106;2023-02-19T13:07:19;102459.69;;;19.59;59.03
58690;BME280;44470;53.206;-6.106;2023-02-19T13:09:51;102462.44;;;19.64;59.49
58690;BME280;44470;53.206;-6.106;2023-02-19T13:12:37;102441.00;;;19.60;59.40
58690;BME280;44470;53.206;-6.106;2023-02-19T13:15:13;102441.94;;;19.64;59.10
58690;BME280;44470;53.206;-6.106;2023-02-19T13:17:44;102441.94;;;19.63;59.16
58690;BME280;44470;53.206;-6.106;2023-02-19T13:20:25;102430.38;;;19.64;59.07
58690;BME280;44470;53.206;-6.106;2023-02-19T13:22:59;102429.50;;;19.65;59.22
58690;BME280;44470;53.206;-6.106;2023-02-19T13:29:11;102426.84;;;19.68;59.27
58690;BME280;44470;53.206;-6.106;2023-02-19T13:31:34;102423.28;;;19.69;59.22
58690;BME280;44470;53.206;-6.106;2023-02-19T13:36:42;102418.81;;;19.66;59.21
58690;BME280;44470;53.206;-6.106;2023-02-19T13:39:12;102423.28;;;19.69;59.06
58690;BME280;44470;53.206;-6.106;2023-02-19T13:41:40;102413.47;;;19.69;59.08
58690;BME280;44470;53.206;-6.106;2023-02-19T13:44:16;102410.81;;;19.68;58.90
58690;BME280;44470;53.206;-6.106;2023-02-19T13:46:45;102417.94;;;19.69;58.88
58690;BME280;44470;53.206;-6.106;2023-02-19T13:54:30;102409.94;;;19.70;59.04
58690;BME280;44470;53.206;-6.106;2023-02-19T13:59:57;102401.03;;;19.70;58.82
58690;BME280;44470;53.206;-6.106;2023-02-19T14:02:27;102411.72;;;19.71;59.00
58690;BME280;44470;53.206;-6.106;2023-02-19T14:05:03;102404.63;;;19.72;58.74
58690;BME280;44470;53.206;-6.106;2023-02-19T14:07:47;102414.41;;;19.73;59.15
58690;BME280;44470;53.206;-6.106;2023-02-19T14:13:07;102415.28;;;19.70;58.82
58690;BME280;44470;53.206;-6.106;2023-02-19T14:15:48;102414.41;;;19.73;58.92
58690;BME280;44470;53.206;-6.106;2023-02-19T14:19:05;102412.63;;;19.72;58.96
58690;BME280;44470;53.206;-6.106;2023-02-19T14:21:34;102402.81;;;19.68;58.81
58690;BME280;44470;53.206;-6.106;2023-02-19T14:24:00;102407.28;;;19.72;59.09
58690;BME280;44470;53.206;-6.106;2023-02-19T14:26:29;102399.25;;;19.70;58.79
58690;BME280;44470;53.206;-6.106;2023-02-19T14:28:56;102389.41;;;19.66;58.97
58690;BME280;44470;53.206;-6.106;2023-02-19T14:31:24;102396.59;;;19.72;59.00
58690;BME280;44470;53.206;-6.106;2023-02-19T14:33:52;102397.50;;;19.74;59.14
58690;BME280;44470;53.206;-6.106;2023-02-19T14:36:57;102385.91;;;19.72;58.79
58690;BME280;44470;53.206;-6.106;2023-02-19T14:41:53;102383.25;;;19.73;59.01
58690;BME280;44470;53.206;-6.106;2023-02-19T14:44:34;102394.84;;;19.74;59.30
58690;BME280;44470;53.206;-6.106;2023-02-19T14:47:06;102383.25;;;19.75;59.06
58690;BME280;44470;53.206;-6.106;2023-02-19T14:49:54;102390.41;;;19.76;59.21
58690;BME280;44470;53.206;-6.106;2023-02-19T14:52:26;102385.94;;;19.75;59.05
58690;BME280;44470;53.206;-6.106;2023-02-19T14:55:08;102385.94;;;19.78;59.16
58690;BME280;44470;53.206;-6.106;2023-02-19T14:57:39;102377.00;;;19.73;58.95
58690;BME280;44470;53.206;-6.106;2023-02-19T15:02:48;102371.72;;;19.79;58.98
58690;BME280;44470;53.206;-6.106;2023-02-19T15:05:26;102360.13;;;19.80;58.88
58690;BME280;44470;53.206;-6.106;2023-02-19T15:07:54;102335.19;;;19.75;58.89
58690;BME280;44470;53.206;-6.106;2023-02-19T15:10:21;102342.31;;;19.79;58.73
58690;BME280;44470;53.206;-6.106;2023-02-19T15:12:53;102332.53;;;19.81;58.79
58690;BME280;44470;53.206;-6.106;2023-02-19T15:15:31;102319.16;;;19.75;58.91